Time;durP1;ratioP1;P1;durP2;ratioP2;P2;SDS_P1;SDS_P2;PMS_P1;PMS_P2;Temp;Humidity;BMP_temperature;BMP_pressure;BME280_temperature;BME280_humidity;BME280_pressure;Samples;Min_cycle;Max_cycle;Signal;HPM_P1;HPM_P2
2024/04/22 00:00:16;;;;;;;4.75;3.20;;;;;;;10.17;50.38;102603.94;5171144;27;112920;-62
2024/04/22 00:02:43;;;;;;;6.88;3.65;;;;;;;10.16;50.37;102601.28;5169362;27;112186;-61
2024/04/22 00:05:12;;;;;;;4.95;3.13;;;;;;;10.15;50.53;102600.41;5174964;26;122743;-61
2024/04/22 00:07:39;;;;;;;5.40;3.30;;;;;;;10.16;50.66;102602.16;5175309;26;122653;-62
2024/04/22 00:10:07;;;;;;;6.63;3.30;;;;;;;10.15;50.54;102605.69;5181622;26;112988;-61
2024/04/22 00:12:34;;;;;;;5.22;3.20;;;;;;;10.13;50.64;102602.19;5178018;26;112636;-62
2024/04/22 00:15:01;;;;;;;5.45;3.42;;;;;;;10.11;50.80;102598.69;5175696;27;122491;-61
2024/04/22 00:17:29;;;;;;;5.80;3.25;;;;;;;10.10;50.81;102591.66;5179733;26;123010;-62
2024/04/22 00:19:58;;;;;;;4.97;3.30;;;;;;;10.11;50.87;102588.09;5175297;26;113085;-62
2024/04/22 00:22:25;;;;;;;5.78;3.40;;;;;;;10.11;50.86;102582.81;5170402;27;111771;-62
2024/04/22 00:24:52;;;;;;;5.47;3.90;;;;;;;10.11;50.79;102588.09;5168436;27;122320;-61
2024/04/22 00:27:20;;;;;;;6.22;3.40;;;;;;;10.11;50.95;102588.09;5181056;27;122579;-62
2024/04/22 00:29:48;;;;;;;8.30;4.00;;;;;;;10.11;50.88;102588.09;5168920;27;113614;-62
2024/04/22 00:32:15;;;;;;;4.70;3.30;;;;;;;10.09;50.95;102584.59;5167880;27;113250;-62
2024/04/22 00:34:45;;;;;;;5.75;3.67;;;;;;;10.05;50.96;102590.84;5170393;27;122243;-62
2024/04/22 00:37:13;;;;;;;5.55;3.60;;;;;;;10.03;50.99;102584.72;5167555;27;122957;-62
2024/04/22 00:39:40;;;;;;;4.82;3.60;;;;;;;10.00;50.95;102584.75;5174531;27;113221;-62
2024/04/22 00:42:08;;;;;;;5.45;3.58;;;;;;;9.96;51.16;102585.69;5171397;27;113346;-62
2024/04/22 00:44:35;;;;;;;4.93;3.33;;;;;;;9.94;51.19;102586.59;5168270;27;121980;-62
2024/04/22 00:47:02;;;;;;;5.35;2.92;;;;;;;9.90;51.23;102578.72;5170892;27;122844;-61
2024/04/22 00:49:30;;;;;;;6.43;3.40;;;;;;;9.89;51.20;102590.22;5180170;27;112630;-61
2024/04/22 00:51:57;;;;;;;5.53;3.40;;;;;;;9.86;51.18;102591.09;5174059;27;111836;-62
2024/04/22 00:54:25;;;;;;;4.93;3.50;;;;;;;9.85;51.44;102583.19;5168499;27;122757;-61
2024/04/22 00:56:53;;;;;;;6.88;3.38;;;;;;;9.82;51.38;102586.75;5178899;27;122419;-62
2024/04/22 00:59:21;;;;;;;6.28;3.55;;;;;;;9.80;51.46;102588.56;5167169;27;112838;-62
2024/04/22 01:01:48;;;;;;;6.63;3.83;;;;;;;9.77;51.34;102588.59;5168798;27;115024;-62
2024/04/22 01:04:16;;;;;;;5.28;3.70;;;;;;;9.73;51.53;102589.53;5165786;27;122356;-62
2024/04/22 01:06:44;;;;;;;7.47;3.83;;;;;;;9.72;51.55;102585.16;5169042;27;122277;-62
2024/04/22 01:09:11;;;;;;;5.43;3.58;;;;;;;9.71;51.67;102583.38;5166628;27;112608;-62
2024/04/22 01:11:38;;;;;;;7.10;3.90;;;;;;;9.69;51.47;102582.53;5172983;27;112450;-62
2024/04/22 01:14:06;;;;;;;7.40;3.50;;;;;;;9.67;51.72;102592.25;5166103;27;122267;-62
2024/04/22 01:16:33;;;;;;;5.55;3.72;;;;;;;9.66;51.61;102585.22;5167391;27;122061;-62
2024/04/22 01:19:01;;;;;;;7.30;3.65;;;;;;;9.64;51.61;102579.06;5170800;27;113399;-62
2024/04/22 01:21:28;;;;;;;6.43;3.60;;;;;;;9.63;51.74;102579.97;5169131;27;112971;-61
2024/04/22 01:23:56;;;;;;;5.05;3.45;;;;;;;9.62;51.76;102578.22;5172392;27;122399;-62
2024/04/22 01:26:25;;;;;;;6.07;3.58;;;;;;;9.61;51.55;102576.47;5167286;27;122157;-62
2024/04/22 01:28:52;;;;;;;8.27;3.88;;;;;;;9.59;51.92;102579.13;5176245;27;112663;-62
2024/04/22 01:31:20;;;;;;;8.05;3.67;;;;;;;9.59;51.81;102572.94;5170329;27;111738;-61
2024/04/22 01:33:47;;;;;;;8.57;4.00;;;;;;;9.57;51.79;102569.44;5169011;26;122230;-62
2024/04/22 01:36:14;;;;;;;6.30;3.72;;;;;;;9.54;51.79;102565.97;5195432;26;121646;-66
2024/04/22 01:38:42;;;;;;;4.55;3.28;;;;;;;9.54;51.74;102571.25;5181892;27;112595;-67
2024/04/22 01:41:09;;;;;;;5.43;3.35;;;;;;;9.53;51.74;102569.50;5176080;27;112502;-66
2024/04/22 01:43:36;;;;;;;5.85;3.42;;;;;;;9.51;51.67;102566.00;5178780;27;122406;-66
2024/04/22 01:46:04;;;;;;;6.50;3.83;;;;;;;9.48;51.60;102573.97;5174732;27;122177;-67
2024/04/22 01:48:32;;;;;;;6.38;3.35;;;;;;;9.47;51.57;102572.22;5173128;27;112224;-67
2024/04/22 01:50:59;;;;;;;6.75;3.80;;;;;;;9.45;51.63;102560.78;5173213;27;112624;-66
2024/04/22 01:53:27;;;;;;;6.18;3.80;;;;;;;9.42;51.67;102560.84;5170187;27;122309;-66
2024/04/22 01:55:57;;;;;;;7.60;4.25;;;;;;;9.37;51.66;102562.66;5169483;26;122044;-66
2024/04/22 01:58:25;;;;;;;6.43;4.03;;;;;;;9.37;51.67;102567.94;5171838;27;113709;-66
2024/04/22 02:00:52;;;;;;;6.10;3.47;;;;;;;9.33;51.74;102555.66;5175195;27;112380;-67
2024/04/22 02:03:20;;;;;;;4.78;3.35;;;;;;;9.30;51.73;102558.34;5168163;27;122923;-66
2024/04/22 02:05:47;;;;;;;6.00;3.67;;;;;;;9.27;51.83;102558.38;5177162;26;122687;-66
2024/04/22 02:08:14;;;;;;;4.82;3.70;;;;;;;9.23;51.91;102559.28;5181414;26;113838;-67
2024/04/22 02:10:42;;;;;;;6.50;3.60;;;;;;;9.19;51.89;102553.16;5173884;26;113087;-67
2024/04/22 02:13:09;;;;;;;4.95;3.78;;;;;;;9.16;51.91;102554.09;5182446;26;122222;-67
2024/04/22 02:15:37;;;;;;;6.78;4.00;;;;;;;9.13;51.98;102548.81;5171655;27;122154;-66
2024/04/22 02:18:06;;;;;;;5.32;4.00;;;;;;;9.11;51.99;102550.63;5172422;27;112734;-67
2024/04/22 02:20:34;;;;;;;6.97;4.13;;;;;;;9.09;52.03;102551.53;5176784;27;113212;-66
2024/04/22 02:23:01;;;;;;;5.32;3.78;;;;;;;9.04;52.06;102555.97;5199307;26;121957;-66
2024/04/22 02:25:29;;;;;;;6.20;3.83;;;;;;;9.01;52.20;102554.25;5178518;27;122130;-67
2024/04/22 02:27:56;;;;;;;5.20;3.67;;;;;;;8.99;52.19;102550.75;5179153;27;112937;-67
2024/04/22 02:30:24;;;;;;;6.20;4.00;;;;;;;8.96;52.27;102550.78;5173273;27;113565;-67
2024/04/22 02:32:51;;;;;;;6.60;3.97;;;;;;;8.92;52.13;102543.78;5170410;26;122221;-67
2024/04/22 02:35:18;;;;;;;6.90;4.07;;;;;;;8.91;52.29;102547.31;5176665;27;122283;-67
2024/04/22 02:37:46;;;;;;;5.15;3.85;;;;;;;8.88;52.33;102542.06;5174006;27;113452;-67
2024/04/22 02:40:13;;;;;;;5.88;3.67;;;;;;;8.85;52.33;102536.81;5174274;27;113179;-66
2024/04/22 02:42:40;;;;;;;5.72;4.00;;;;;;;8.81;52.49;102535.09;5173088;27;122784;-66
2024/04/22 02:45:09;;;;;;;6.93;3.97;;;;;;;8.79;52.53;102532.47;5168815;27;122477;-66
2024/04/22 02:47:36;;;;;;;6.13;3.65;;;;;;;8.75;52.53;102531.63;5170550;26;112734;-67
2024/04/22 02:50:05;;;;;;;6.78;3.45;;;;;;;8.74;52.45;102529.88;5177132;27;112784;-66
2024/04/22 02:52:32;;;;;;;5.80;3.88;;;;;;;8.72;52.42;102526.38;5170947;27;122472;-66
2024/04/22 02:54:59;;;;;;;5.65;3.78;;;;;;;8.70;52.43;102522.88;5172770;27;122138;-67
2024/04/22 02:57:27;;;;;;;5.68;3.60;;;;;;;8.65;52.44;102524.69;5180673;27;114296;-67
2024/04/22 02:59:54;;;;;;;9.02;3.97;;;;;;;8.63;52.40;102526.47;5194562;26;113213;-67
2024/04/22 03:02:21;;;;;;;6.20;3.97;;;;;;;8.60;52.52;102536.19;5172672;27;122443;-67
2024/04/22 03:04:50;;;;;;;5.07;4.15;;;;;;;8.56;52.42;102532.69;5175482;27;122148;-68
2024/04/22 03:07:17;;;;;;;5.55;3.47;;;;;;;8.54;52.42;102526.56;5171316;27;112480;-67
2024/04/22 03:09:45;;;;;;;6.93;3.83;;;;;;;8.50;52.43;102524.84;5171680;27;112484;-67
2024/04/22 03:12:13;;;;;;;5.35;3.50;;;;;;;8.48;52.51;102521.34;5174981;27;123096;-67
2024/04/22 03:14:40;;;;;;;6.40;3.85;;;;;;;8.41;52.50;102524.91;5169926;27;122940;-67
2024/04/22 03:17:08;;;;;;;6.28;3.50;;;;;;;8.36;52.73;102520.53;5173754;27;113961;-67
2024/04/22 03:19:35;;;;;;;5.20;3.45;;;;;;;8.33;52.52;102525.84;5170331;27;112961;-67
2024/04/22 03:22:03;;;;;;;6.22;3.65;;;;;;;8.30;52.65;102517.94;5175673;27;122088;-67
2024/04/22 03:24:30;;;;;;;5.78;3.70;;;;;;;8.27;52.67;102528.53;5171253;27;122240;-67
2024/04/22 03:26:57;;;;;;;5.15;3.90;;;;;;;8.21;52.60;102523.28;5173162;27;114696;-67
2024/04/22 03:29:25;;;;;;;5.63;3.58;;;;;;;8.17;52.71;102521.56;5169985;27;112383;-68
2024/04/22 03:31:52;;;;;;;5.57;2.83;;;;;;;8.12;52.49;102523.38;5174632;27;123024;-67
2024/04/22 03:34:19;;;;;;;5.00;2.85;;;;;;;8.08;52.55;102526.91;5176772;27;122728;-68
2024/04/22 03:36:47;;;;;;;4.00;2.45;;;;;;;8.04;52.50;102525.19;5200175;26;112692;-67
2024/04/22 03:39:14;;;;;;;4.70;2.55;;;;;;;7.99;52.55;102523.47;5174236;27;112704;-67
2024/04/22 03:41:42;;;;;;;5.45;2.65;;;;;;;7.95;52.41;102510.31;5167488;27;122316;-68
2024/04/22 03:44:09;;;;;;;5.38;2.55;;;;;;;7.88;52.60;102509.47;5171864;27;122113;-68
2024/04/22 03:52:24;;;;;;;4.10;2.30;;;;;;;7.72;52.30;102507.81;5145124;27;121950;-67
2024/04/22 03:54:51;;;;;;;3.58;2.50;;;;;;;7.67;52.47;102514.91;5169375;27;122579;-67
2024/04/22 03:57:18;;;;;;;3.67;2.45;;;;;;;7.60;52.55;102509.63;5165545;27;112573;-67
2024/04/22 03:59:46;;;;;;;4.75;2.58;;;;;;;7.56;52.56;102507.91;5170246;27;111738;-67
2024/04/22 04:02:13;;;;;;;5.65;2.50;;;;;;;7.52;52.60;102510.59;5174606;27;122153;-68
2024/04/22 04:04:41;;;;;;;4.93;2.80;;;;;;;7.49;52.79;102516.72;5174397;27;122512;-68
2024/04/22 04:07:08;;;;;;;5.63;2.80;;;;;;;7.45;52.75;102509.72;5177137;27;112879;-68
2024/04/22 04:09:36;;;;;;;4.55;2.88;;;;;;;7.43;52.60;102516.75;5198176;26;112838;-68
2024/04/22 04:12:05;;;;;;;4.10;2.30;;;;;;;7.39;52.55;102520.31;5175770;27;122286;-67
2024/04/22 04:14:32;;;;;;;5.20;3.00;;;;;;;7.38;52.54;102518.53;5176743;27;122688;-68
2024/04/22 04:17:00;;;;;;;4.15;2.47;;;;;;;7.34;52.61;102511.53;5174485;27;112961;-68
2024/04/22 04:19:29;;;;;;;6.38;2.55;;;;;;;7.32;52.75;102514.16;5169130;27;112602;-67
2024/04/22 04:21:57;;;;;;;6.38;2.40;;;;;;;7.31;52.71;102512.44;5170786;27;121718;-67
2024/04/22 04:24:24;;;;;;;4.78;2.60;;;;;;;7.31;52.63;102511.53;5166424;27;123234;-67
2024/04/22 04:26:52;;;;;;;5.13;2.40;;;;;;;7.30;52.67;102520.34;5172767;27;111910;-68
2024/04/22 04:29:19;;;;;;;4.13;2.33;;;;;;;7.31;52.62;102511.53;5168165;27;112576;-68
2024/04/22 04:31:48;;;;;;;5.35;2.40;;;;;;;7.29;52.58;102518.56;5166707;27;122505;-68
2024/04/22 04:34:15;;;;;;;4.57;2.58;;;;;;;7.28;52.63;102516.84;5171787;27;122699;-63
2024/04/22 04:36:42;;;;;;;5.35;2.50;;;;;;;7.25;52.45;102511.56;5170440;27;114027;-63
2024/04/22 04:39:10;;;;;;;4.82;2.40;;;;;;;7.22;52.49;102518.59;5168485;27;113167;-63
2024/04/22 04:41:38;;;;;;;4.35;2.20;;;;;;;7.20;52.58;102517.75;5170249;27;122434;-63
2024/04/22 04:44:07;;;;;;;5.15;2.50;;;;;;;7.19;52.72;102518.59;5170793;27;122700;-63
2024/04/22 04:46:35;;;;;;;4.53;2.30;;;;;;;7.19;52.57;102523.88;5183261;27;111982;-63
2024/04/22 04:49:02;;;;;;;4.35;2.33;;;;;;;7.17;52.72;102520.38;5175640;27;112907;-63
2024/04/22 04:51:30;;;;;;;4.72;2.35;;;;;;;7.16;52.73;102523.91;5167549;27;122091;-64
2024/04/22 04:53:57;;;;;;;6.05;2.50;;;;;;;7.15;52.74;102522.16;5176871;27;121812;-64
2024/04/22 04:56:24;;;;;;;5.07;2.35;;;;;;;7.13;52.55;102518.66;5199787;26;112431;-63
2024/04/22 04:58:53;;;;;;;4.18;2.17;;;;;;;7.14;52.81;102516.88;5180319;27;112493;-62
2024/04/22 05:01:22;;;;;;;4.88;2.35;;;;;;;7.13;52.69;102523.91;5173955;27;123132;-62
2024/04/22 05:03:50;;;;;;;4.65;2.85;;;;;;;7.14;52.70;102520.41;5170901;26;121963;-62
2024/04/22 05:06:17;;;;;;;4.78;2.60;;;;;;;7.14;52.75;102519.50;5166548;27;112642;-62
2024/04/22 05:08:44;;;;;;;4.82;3.03;;;;;;;7.17;52.90;102520.38;5171412;27;111877;-62
2024/04/22 05:11:12;;;;;;;4.68;2.53;;;;;;;7.16;53.05;102518.66;5163684;27;123087;-61
2024/04/22 05:13:39;;;;;;;4.47;2.50;;;;;;;7.17;52.97;102520.38;5172219;27;122111;-62
2024/04/22 05:16:06;;;;;;;4.97;2.53;;;;;;;7.19;52.95;102523.88;5175722;27;112586;-62
2024/04/22 05:18:34;;;;;;;6.35;2.97;;;;;;;7.22;52.92;102523.88;5171412;27;112872;-62
2024/04/22 05:21:01;;;;;;;6.53;3.03;;;;;;;7.26;53.15;102523.88;5198250;26;121507;-62
2024/04/22 05:23:29;;;;;;;7.28;2.80;;;;;;;7.30;52.94;102525.63;5173950;27;123934;-62
2024/04/22 05:25:56;;;;;;;5.30;2.75;;;;;;;7.33;53.25;102518.56;5168660;27;112521;-62
2024/04/22 05:28:26;;;;;;;5.32;2.90;;;;;;;7.38;53.23;102514.16;5172203;27;113299;-62
2024/04/22 05:30:54;;;;;;;4.93;2.63;;;;;;;7.44;53.08;102513.25;5166871;26;122644;-62
2024/04/22 05:36:11;;;;;;;4.82;3.00;;;;;;;7.52;53.03;102522.00;5172751;27;112720;-62
2024/04/22 05:38:39;;;;;;;4.07;2.30;;;;;;;7.55;53.34;102516.72;5185680;27;110760;-62
2024/04/22 05:41:11;;;;;;;8.32;2.80;;;;;;;7.57;53.26;102517.59;5173229;27;122019;-62
2024/04/22 05:43:38;;;;;;;6.15;2.75;;;;;;;7.60;53.23;102520.19;5176445;27;123399;-62
2024/04/22 05:46:08;;;;;;;4.63;2.50;;;;;;;7.66;53.37;102518.41;5178141;27;112623;-61
2024/04/22 05:48:35;;;;;;;6.13;2.70;;;;;;;7.70;53.36;102515.72;5169868;27;112808;-62
2024/04/22 05:51:03;;;;;;;5.50;2.80;;;;;;;7.74;53.21;102511.31;5201532;26;121019;-62
2024/04/22 05:53:31;;;;;;;4.40;2.28;;;;;;;7.80;53.41;102511.28;5173189;27;122819;-62
2024/04/22 05:55:58;;;;;;;5.65;2.88;;;;;;;7.84;53.37;102507.75;5171897;27;112656;-62
2024/04/22 05:58:26;;;;;;;4.78;2.67;;;;;;;7.91;53.46;102508.56;5171958;27;112567;-62
2024/04/22 06:00:53;;;;;;;6.25;2.92;;;;;;;7.96;53.50;102506.78;5175556;27;121901;-62
2024/04/22 06:03:20;;;;;;;5.53;2.55;;;;;;;8.02;53.47;102500.56;5173953;27;122633;-62
2024/04/22 06:05:48;;;;;;;4.57;2.45;;;;;;;8.08;53.38;102503.16;5168692;27;113422;-63
2024/04/22 06:08:16;;;;;;;6.50;2.60;;;;;;;8.14;53.36;102511.03;5200719;26;111311;-63
2024/04/22 06:10:44;;;;;;;4.80;2.78;;;;;;;8.19;53.57;102509.22;5170171;27;122066;-62
2024/04/22 06:13:11;;;;;;;4.90;2.35;;;;;;;8.25;53.58;102503.91;5166175;27;122665;-62
2024/04/22 06:15:40;;;;;;;7.70;2.92;;;;;;;8.33;53.52;102502.06;5170631;27;113569;-63
2024/04/22 06:18:08;;;;;;;4.90;2.90;;;;;;;8.41;53.69;102498.50;5176269;27;113546;-62
2024/04/22 06:20:35;;;;;;;6.40;2.88;;;;;;;8.48;53.51;102502.88;5172977;27;122352;-62
2024/04/22 06:23:03;;;;;;;5.60;2.78;;;;;;;8.55;53.55;102513.34;5169573;27;122542;-63
2024/04/22 06:25:30;;;;;;;5.63;3.05;;;;;;;8.63;53.61;102515.91;5168858;27;112579;-62
2024/04/22 06:27:57;;;;;;;6.38;2.60;;;;;;;8.70;53.51;102516.72;5176558;27;113592;-62
2024/04/22 06:30:25;;;;;;;3.70;2.50;;;;;;;8.77;53.49;102511.34;5172232;27;122059;-61
2024/04/22 06:32:52;;;;;;;6.85;2.70;;;;;;;8.87;53.57;102511.25;5176348;27;122529;-61
2024/04/22 06:35:19;;;;;;;5.18;2.67;;;;;;;8.96;53.63;102498.81;5175194;27;112844;-61
2024/04/22 06:37:47;;;;;;;4.65;2.88;;;;;;;9.03;53.57;102510.19;5174808;27;112833;-61
2024/04/22 06:40:14;;;;;;;7.18;2.80;;;;;;;9.11;53.63;102510.97;5181108;27;122264;-66
2024/04/22 06:42:48;;;;;;;4.53;2.58;;;;;;;9.21;53.65;102513.50;5178774;27;122105;-67
2024/04/22 06:45:16;;;;;;;5.50;2.80;;;;;;;9.28;53.58;102502.81;5173152;27;112536;-67
2024/04/22 06:47:43;;;;;;;4.95;2.90;;;;;;;9.37;53.66;102493.91;5174149;27;112044;-66
2024/04/22 06:50:13;;;;;;;6.75;2.60;;;;;;;9.47;53.64;102495.50;5184115;26;120552;-66
2024/04/22 06:52:41;;;;;;;5.95;3.03;;;;;;;9.58;53.69;102491.88;5179008;26;122063;-67
2024/04/22 06:55:09;;;;;;;5.30;2.30;;;;;;;9.69;53.55;102489.94;5172420;27;114139;-66
2024/04/22 06:57:37;;;;;;;5.45;2.78;;;;;;;9.82;53.60;102488.84;5198998;26;111635;-67
2024/04/22 07:00:05;;;;;;;6.60;2.60;;;;;;;9.94;53.56;102496.63;5176346;27;121149;-67
2024/04/22 07:02:32;;;;;;;6.10;2.75;;;;;;;10.08;53.65;102492.88;5168418;27;122481;-66
2024/04/22 07:05:00;;;;;;;5.07;2.55;;;;;;;10.20;53.55;102497.94;5175747;27;112434;-66
2024/04/22 07:07:28;;;;;;;5.38;2.78;;;;;;;10.31;53.57;102492.50;5168901;27;114381;-66
2024/04/22 07:09:55;;;;;;;4.10;2.50;;;;;;;10.43;53.49;102494.06;5170680;27;122330;-66
2024/04/22 07:12:23;;;;;;;4.18;2.78;;;;;;;10.55;53.51;102492.94;5173904;27;122948;-66
2024/04/22 07:14:50;;;;;;;6.78;2.78;;;;;;;10.66;53.34;102494.53;5168848;27;113784;-66
2024/04/22 07:17:19;;;;;;;5.60;2.65;;;;;;;10.76;53.23;102494.34;5184527;27;111569;-66
2024/04/22 07:19:46;;;;;;;4.95;2.42;;;;;;;10.87;53.22;102489.72;5170197;27;123033;-66
2024/04/22 07:22:14;;;;;;;5.18;2.58;;;;;;;11.00;53.55;102490.31;5166384;27;122278;-66
2024/04/22 07:24:45;;;;;;;4.47;2.63;;;;;;;11.10;53.13;102482.16;5173965;27;113020;-69
2024/04/22 07:27:29;;;;;;;3.55;2.28;;;;;;;11.21;53.01;102483.72;5170200;27;112036;-66
2024/04/22 07:29:59;;;;;;;3.80;2.42;;;;;;;11.31;53.06;102479.94;5190894;27;122331;-67
2024/04/22 07:32:27;;;;;;;4.03;2.38;;;;;;;11.43;52.78;102487.66;5173793;27;122298;-66
2024/04/22 07:34:55;;;;;;;4.60;2.70;;;;;;;11.56;52.78;102484.72;5174470;27;111585;-66
2024/04/22 07:37:33;;;;;;;4.93;2.47;;;;;;;11.65;52.58;102485.38;5182976;27;112577;-66
2024/04/22 07:40:14;;;;;;;5.13;2.60;;;;;;;11.76;52.60;102477.16;5171870;27;124384;-66
2024/04/22 07:42:43;;;;;;;4.93;2.63;;;;;;;11.86;52.52;102483.97;5168049;27;122350;-66
2024/04/22 07:45:11;;;;;;;6.60;2.67;;;;;;;11.96;52.42;102467.84;5177074;27;112607;-66
2024/04/22 07:47:41;;;;;;;5.40;2.63;;;;;;;12.05;52.20;102464.97;5175440;27;113389;-66
2024/04/22 07:50:10;;;;;;;4.28;2.60;;;;;;;12.16;52.36;102460.25;5199011;26;122069;-66
2024/04/22 07:52:39;;;;;;;4.57;2.35;;;;;;;12.29;52.14;102465.28;5185619;27;122300;-66
2024/04/22 07:55:10;;;;;;;5.72;2.35;;;;;;;12.38;51.99;102470.34;5170423;27;113666;-66
2024/04/22 07:57:40;;;;;;;3.55;2.17;;;;;;;12.45;51.55;102471.91;5180255;27;113371;-66
2024/04/22 08:00:08;;;;;;;5.53;2.40;;;;;;;12.54;51.65;102471.66;5180113;27;122400;-67
2024/04/22 08:02:39;;;;;;;4.25;2.75;;;;;;;12.61;51.45;102467.06;5180119;27;121247;-66
2024/04/22 08:05:07;;;;;;;4.85;2.38;;;;;;;12.71;51.37;102470.34;5165446;27;113068;-66
2024/04/22 08:07:38;;;;;;;3.83;2.42;;;;;;;12.82;51.46;102465.59;5167497;27;112613;-66
2024/04/22 08:10:06;;;;;;;4.47;2.50;;;;;;;12.97;51.67;102469.59;5179112;27;122400;-66
2024/04/22 08:12:36;;;;;;;4.47;2.38;;;;;;;13.15;51.67;102462.88;5177225;27;122273;-66
2024/04/22 08:15:04;;;;;;;5.63;2.40;;;;;;;13.31;51.51;102469.50;5173612;27;112974;-66
2024/04/22 08:17:31;;;;;;;6.00;2.40;;;;;;;13.46;51.42;102472.63;5170111;27;112799;-66
2024/04/22 08:19:59;;;;;;;3.35;2.38;;;;;;;13.55;50.94;102467.00;5177937;27;121910;-66
2024/04/22 08:22:27;;;;;;;4.45;2.10;;;;;;;13.60;50.28;102465.94;5168941;27;122832;-66
2024/04/22 08:24:55;;;;;;;3.38;2.10;;;;;;;13.62;50.33;102463.25;5198988;26;112496;-66
2024/04/22 08:27:23;;;;;;;3.00;2.00;;;;;;;13.68;50.24;102463.03;5186134;27;112936;-68
2024/04/22 08:29:53;;;;;;;4.43;1.85;;;;;;;13.72;49.87;102467.34;5183467;27;122422;-66
2024/04/22 08:32:21;;;;;;;5.70;2.35;;;;;;;13.76;49.97;102460.97;5166462;27;120672;-66
2024/04/22 08:34:48;;;;;;;5.28;2.10;;;;;;;13.83;49.57;102462.53;5181169;27;113344;-66
2024/04/22 08:37:16;;;;;;;3.80;1.90;;;;;;;13.88;49.62;102465.06;5173746;27;112858;-66
2024/04/22 08:39:44;;;;;;;4.45;2.15;;;;;;;13.91;49.48;102469.41;5180021;27;121293;-66
2024/04/22 08:42:13;;;;;;;3.35;1.98;;;;;;;13.96;49.35;102467.47;5178338;27;120989;-66
2024/04/22 08:44:41;;;;;;;3.55;1.80;;;;;;;13.99;49.20;102452.25;5191682;27;112912;-66
2024/04/22 08:47:10;;;;;;;4.18;2.03;;;;;;;14.03;49.29;102453.00;5187461;27;113235;-66
2024/04/22 08:49:37;;;;;;;2.55;1.60;;;;;;;14.00;49.23;102458.44;5185991;27;121997;-66
2024/04/22 08:52:05;;;;;;;3.92;1.85;;;;;;;13.96;48.83;102457.69;5178044;27;122155;-66
2024/04/22 08:54:34;;;;;;;4.65;2.10;;;;;;;13.91;48.61;102453.41;5186768;27;112573;-66
2024/04/22 08:57:04;;;;;;;3.20;1.95;;;;;;;13.86;48.68;102455.34;5173854;27;112555;-66
2024/04/22 08:59:31;;;;;;;3.88;1.73;;;;;;;13.80;48.73;102446.63;5189927;27;122573;-66
2024/04/22 09:02:07;;;;;;;3.25;1.92;;;;;;;13.75;48.78;102448.59;5176675;26;121856;-66
2024/04/22 09:04:35;;;;;;;3.55;1.80;;;;;;;13.76;48.50;102445.00;5172632;27;111660;-66
2024/04/22 09:07:07;;;;;;;4.20;2.20;;;;;;;13.78;48.74;102432.50;5185107;27;113418;-66
2024/04/22 09:09:34;;;;;;;2.53;1.70;;;;;;;13.83;48.97;102430.56;5175717;27;122224;-66
2024/04/22 09:12:22;;;;;;;4.53;1.70;;;;;;;13.91;48.78;102426.78;5168529;27;123691;-67
2024/04/22 09:15:01;;;;;;;3.75;1.75;;;;;;;13.97;48.68;102421.25;5172308;27;112820;-67
2024/04/22 09:17:29;;;;;;;3.75;1.48;;;;;;;14.05;48.69;102424.50;5169749;27;113586;-66
2024/04/22 09:19:57;;;;;;;3.65;1.75;;;;;;;14.06;48.71;102426.25;5172088;27;122690;-67
2024/04/22 09:22:24;;;;;;;3.92;1.70;;;;;;;14.08;48.39;102429.75;5175276;27;122633;-66
2024/04/22 09:24:52;;;;;;;2.53;1.60;;;;;;;14.07;48.38;102428.00;5167164;27;112377;-66
2024/04/22 09:27:20;;;;;;;4.22;1.75;;;;;;;14.07;48.31;102422.69;5178647;27;112490;-66
2024/04/22 09:29:50;;;;;;;5.93;1.98;;;;;;;14.11;48.16;102424.31;5178037;27;121094;-67
2024/04/22 09:32:22;;;;;;;4.38;1.50;;;;;;;14.15;48.06;102423.28;5169181;27;122117;-62
2024/04/22 09:34:53;;;;;;;5.63;1.77;;;;;;;14.18;48.24;102431.19;5173264;27;113818;-62
2024/04/22 09:37:22;;;;;;;3.05;1.55;;;;;;;14.21;48.10;102425.72;5176219;27;113672;-62
2024/04/22 09:39:51;;;;;;;3.78;1.50;;;;;;;14.21;48.00;102425.72;5176687;27;122616;-62
2024/04/22 09:42:19;;;;;;;5.43;1.52;;;;;;;14.20;47.92;102415.13;5178958;27;122243;-62
2024/04/22 09:44:48;;;;;;;3.20;1.60;;;;;;;14.19;47.50;102416.91;5174863;27;112993;-62
2024/04/22 09:47:17;;;;;;;3.30;1.50;;;;;;;14.19;47.42;102421.38;5172092;26;113154;-63
2024/04/22 09:49:46;;;;;;;3.00;1.40;;;;;;;14.19;47.30;102416.06;5171560;27;122429;-63
2024/04/22 09:52:17;;;;;;;6.97;1.50;;;;;;;14.18;47.14;102415.19;5175587;27;122029;-63
2024/04/22 09:54:44;;;;;;;4.13;1.30;;;;;;;14.17;47.15;102408.09;5172628;27;112476;-63
2024/04/22 09:57:16;;;;;;;4.10;1.15;;;;;;;14.15;46.60;102409.09;5176094;27;112845;-63
2024/04/22 09:59:44;;;;;;;3.85;1.80;;;;;;;14.11;46.79;102403.00;5187622;27;122348;-63
2024/04/22 10:02:12;;;;;;;2.17;1.45;;;;;;;14.08;46.45;102411.09;5171108;27;122675;-67
2024/04/22 10:04:40;;;;;;;2.50;1.35;;;;;;;14.11;46.69;102408.34;5195290;27;112707;-66
2024/04/22 10:07:07;;;;;;;2.78;1.35;;;;;;;14.19;46.54;102414.25;5172857;27;112785;-64
2024/04/22 10:09:35;;;;;;;3.80;1.30;;;;;;;14.30;46.33;102397.03;5179412;27;122322;-63
2024/04/22 10:12:07;;;;;;;4.20;1.48;;;;;;;14.40;45.79;102409.94;5177938;27;121994;-62
2024/04/22 10:14:35;;;;;;;4.25;1.50;;;;;;;14.48;45.91;102400.81;5186599;27;112743;-61
2024/04/22 10:17:04;;;;;;;3.47;1.20;;;;;;;14.55;45.90;102397.84;5176261;27;112662;-61
2024/04/22 10:19:33;;;;;;;3.00;1.30;;;;;;;14.67;45.87;102390.38;5184813;27;122583;-62
2024/04/22 10:22:03;;;;;;;4.15;1.40;;;;;;;14.78;45.72;102380.16;5175530;27;126685;-61
2024/04/22 10:24:36;;;;;;;2.83;1.25;;;;;;;14.87;45.50;102382.47;5168342;27;113258;-62
2024/04/22 10:27:09;;;;;;;2.85;1.25;;;;;;;14.97;45.60;102372.31;5175948;27;113851;-62
2024/04/22 10:29:43;;;;;;;3.90;1.30;;;;;;;15.09;45.37;102371.00;5180517;27;122801;-62
2024/04/22 10:32:10;;;;;;;2.40;1.17;;;;;;;15.14;45.12;102374.31;5182447;27;122231;-63
2024/04/22 10:34:43;;;;;;;3.15;1.27;;;;;;;15.11;44.54;102364.66;5208465;26;113500;-62
2024/04/22 10:37:11;;;;;;;3.90;1.20;;;;;;;15.09;44.14;102360.31;5180955;27;112817;-66
2024/04/22 10:39:43;;;;;;;1.92;1.05;;;;;;;15.05;44.29;102364.00;5178279;27;123970;-66
2024/04/22 10:42:12;;;;;;;3.80;1.23;;;;;;;15.03;44.06;102360.53;5190684;27;120962;-66
2024/04/22 10:44:41;;;;;;;2.40;1.20;;;;;;;15.07;44.02;102356.81;5167465;27;112706;-66
2024/04/22 10:47:09;;;;;;;1.92;1.00;;;;;;;15.18;44.75;102359.91;5167092;27;113104;-67
2024/04/22 10:49:37;;;;;;;3.50;1.20;;;;;;;15.30;44.44;102364.78;5171397;27;122301;-66
2024/04/22 10:52:05;;;;;;;3.08;1.00;;;;;;;15.42;44.58;102362.53;5164949;27;123451;-66
2024/04/22 10:54:33;;;;;;;1.92;1.30;;;;;;;15.50;44.30;102360.41;5195753;26;112928;-66
2024/04/22 10:57:00;;;;;;;3.65;1.30;;;;;;;15.56;43.70;102365.53;5176659;26;113000;-66
2024/04/22 10:59:28;;;;;;;3.17;1.40;;;;;;;15.50;43.52;102361.31;5180836;27;122352;-66
2024/04/22 11:01:56;;;;;;;2.00;1.35;;;;;;;15.43;43.24;102382.97;5171460;27;121916;-66
2024/04/22 11:04:24;;;;;;;2.33;1.52;;;;;;;15.21;42.49;102391.84;5172475;27;111991;-66
2024/04/22 11:06:52;;;;;;;2.25;2.05;;;;;;;14.83;42.40;102396.88;5171232;27;112608;-66
2024/04/22 11:09:20;;;;;;;2.13;1.30;;;;;;;14.41;42.53;102405.50;5179703;27;122814;-66
2024/04/22 11:11:48;;;;;;;3.45;1.67;;;;;;;13.97;42.59;102416.78;5169109;27;122712;-66
2024/04/22 11:14:16;;;;;;;2.25;1.30;;;;;;;13.55;42.82;102424.41;5176031;27;113848;-67
2024/04/22 11:16:43;;;;;;;2.75;1.42;;;;;;;13.11;42.98;102434.59;5167702;27;113755;-65
2024/04/22 11:19:11;;;;;;;2.20;1.23;;;;;;;12.68;43.54;102430.53;5185113;26;122543;-65
2024/04/22 11:21:39;;;;;;;2.00;1.30;;;;;;;12.34;43.92;102420.84;5168090;27;122102;-65
2024/04/22 11:24:07;;;;;;;2.97;1.42;;;;;;;12.08;44.11;102430.38;5182015;27;113253;-65
2024/04/22 11:26:36;;;;;;;2.28;1.23;;;;;;;11.88;44.63;102434.41;5198694;26;111192;-65
2024/04/22 11:29:04;;;;;;;1.70;0.98;;;;;;;11.69;44.82;102433.09;5168421;27;121442;-66
2024/04/22 11:31:34;;;;;;;3.92;1.30;;;;;;;11.48;45.30;102429.16;5167648;27;122034;-65
2024/04/22 11:34:02;;;;;;;2.13;1.13;;;;;;;11.28;45.24;102432.25;5164653;27;112480;-66